Date,TemperatureHighF,TemperatureAvgF,TemperatureLowF,DewpointHighF,DewpointAvgF,DewpointLowF,HumidityHigh,HumidityAvg,HumidityLow,PressureMaxIn,PressureMinIn,WindSpeedMaxMPH,WindSpeedAvgMPH,GustSpeedMaxMPH,PrecipitationSumIn
2013-2-1,49.3,43.4,36.9,48.8,42.9,36.4,98,98,98,30.45,30.34,3,0,3,0.00
2013-2-2,45.7,37.9,31.3,45.0,37.4,30.8,98,98,98,30.44,30.26,4,0,4,0.00
2013-2-3,42.8,41.1,39.2,42.3,40.6,38.7,98,98,98,30.32,30.17,4,0,4,0.04
2013-2-4,46.8,43.7,41.9,46.3,43.2,41.4,98,98,98,30.17,29.85,6,1,6,0.15
2013-2-5,45.9,43.6,40.5,45.4,43.1,40.0,98,98,98,29.85,29.76,8,2,8,0.30
2013-2-6,45.3,42.6,40.6,44.8,42.1,40.1,98,98,98,30.11,29.75,7,2,7,0.28
2013-2-7,52.0,42.4,32.5,49.3,41.5,32.0,98,97,80,30.21,29.74,9,2,9,0.01
2013-2-8,47.3,37.3,30.2,46.4,36.8,29.7,98,98,98,30.32,30.21,4,0,4,0.00
2013-2-9,43.2,39.3,33.6,42.7,38.8,32.9,98,98,98,30.37,30.28,4,0,4,0.03
2013-2-10,47.1,37.5,30.4,46.6,37.0,29.9,98,98,98,30.40,30.33,6,1,6,0.00
2013-2-11,44.6,41.1,38.8,43.9,40.6,38.3,98,98,98,30.35,30.33,3,0,3,0.03
2013-2-12,47.7,43.2,40.8,46.4,42.7,40.3,98,98,98,30.39,30.21,6,1,6,0.03
2013-2-13,50.2,42.6,37.0,49.5,42.1,36.5,98,98,98,30.49,30.23,5,1,5,0.00
2013-2-14,45.5,42.6,40.3,45.0,42.1,39.8,98,98,98,30.60,30.48,3,0,3,0.10
2013-2-15,53.4,43.1,36.0,52.4,42.6,35.5,98,98,98,30.60,30.18,5,1,5,0.00
2013-2-16,55.4,44.8,40.5,52.0,44.0,39.8,98,97,82,30.18,30.07,6,1,6,0.12
2013-2-17,48.0,41.5,36.3,47.5,41.0,35.8,98,98,98,30.24,30.12,9,1,9,0.00
2013-2-18,43.0,39.6,38.5,42.5,39.1,38.0,98,98,98,30.12,29.79,5,1,5,0.18
2013-2-19,50.0,40.6,32.4,48.7,40.0,31.9,98,98,86,30.00,29.77,10,1,10,0.00
2013-2-20,40.5,37.6,32.5,40.0,37.1,32.0,98,98,98,30.04,30.00,5,1,5,0.16
2013-2-21,45.9,40.6,38.1,45.4,40.1,37.6,98,98,98,30.03,29.95,9,1,9,0.16
2013-2-22,46.4,40.3,32.9,45.9,39.8,32.2,98,98,98,29.99,29.57,12,3,12,1.10
2013-2-23,49.6,40.8,32.0,49.1,40.3,31.5,98,98,96,30.33,29.80,11,2,11,0.00
2013-2-24,41.9,40.2,39.0,41.4,39.7,38.5,98,98,98,30.34,29.87,6,2,6,0.77
2013-2-25,48.2,42.3,39.4,47.3,41.7,38.9,98,98,90,30.25,29.76,12,4,12,0.16
2013-2-26,43.7,38.6,34.2,42.8,38.1,33.7,98,98,98,30.33,30.16,8,2,8,0.35
2013-2-27,46.8,39.4,33.4,45.9,38.9,32.9,98,98,98,30.33,30.17,5,1,5,0.02
2013-2-28,44.4,39.6,35.1,43.9,39.1,34.4,98,98,98,30.30,30.22,5,1,5,0.85